Time;durP1;ratioP1;P1;durP2;ratioP2;P2;SDS_P1;SDS_P2;PMS_P1;PMS_P2;Temp;Humidity;BMP_temperature;BMP_pressure;BME280_temperature;BME280_humidity;BME280_pressure;Samples;Min_cycle;Max_cycle;Signal;HPM_P1;HPM_P2
2022/07/14 00:00:08;;;;;;;4.97;2.75;;;;;;;14.93;100.00;97833.09;5099055;27;20035;-81
2022/07/14 00:02:34;;;;;;;2.97;2.65;;;;;;;14.95;100.00;97844.63;5099526;28;20432;-81
2022/07/14 00:04:59;;;;;;;5.43;2.95;;;;;;;14.91;100.00;97824.28;5097134;27;20027;-81
2022/07/14 00:07:25;;;;;;;4.32;2.83;;;;;;;14.92;100.00;97831.41;5101007;28;20467;-81
2022/07/14 00:09:50;;;;;;;4.72;2.60;;;;;;;15.01;100.00;97833.41;5095514;28;20497;-81
2022/07/14 00:12:16;;;;;;;3.05;2.70;;;;;;;14.94;100.00;97830.31;5095641;28;20027;-81
2022/07/14 00:14:41;;;;;;;4.78;2.60;;;;;;;15.01;100.00;97841.47;5095386;28;20498;-81
2022/07/14 00:17:07;;;;;;;3.13;2.65;;;;;;;14.92;100.00;97829.53;5095164;28;20032;-81
2022/07/14 00:19:32;;;;;;;4.70;2.92;;;;;;;14.99;100.00;97835.31;5096450;28;20376;-81
2022/07/14 00:21:58;;;;;;;3.72;2.63;;;;;;;15.01;100.00;97838.78;5132334;27;20035;-82
2022/07/14 00:24:24;;;;;;;4.10;2.92;;;;;;;14.91;100.00;97838.59;5101392;28;20058;-81
2022/07/14 00:26:49;;;;;;;5.88;2.90;;;;;;;14.75;100.00;97835.34;5113125;27;20498;-81
2022/07/14 00:29:15;;;;;;;7.22;3.30;;;;;;;14.64;100.00;97827.19;5095281;28;20103;-81
2022/07/14 00:31:40;;;;;;;9.13;2.70;;;;;;;14.58;100.00;97833.03;5094852;28;20123;-81
2022/07/14 00:34:06;;;;;;;6.65;2.90;;;;;;;14.52;100.00;97838.84;5098222;27;20042;-81
2022/07/14 00:36:31;;;;;;;4.20;2.95;;;;;;;14.57;100.00;97840.25;5100321;28;20046;-81
2022/07/14 00:38:57;;;;;;;3.78;2.75;;;;;;;14.68;100.00;97838.56;5094808;28;20046;-81
2022/07/14 00:41:23;;;;;;;7.18;2.90;;;;;;;14.50;100.00;97840.78;5111956;28;20036;-81
2022/07/14 00:43:49;;;;;;;5.03;3.20;;;;;;;14.39;100.00;97841.59;5112089;28;20027;-81
2022/07/14 00:46:15;;;;;;;5.15;3.05;;;;;;;14.28;100.00;97843.28;5094535;28;20020;-81
2022/07/14 00:48:40;;;;;;;6.75;3.22;;;;;;;14.36;100.00;97847.19;5111907;28;20043;-82
2022/07/14 00:51:06;;;;;;;4.95;3.03;;;;;;;14.35;100.00;97839.22;5128813;27;20065;-81
2022/07/14 00:53:32;;;;;;;4.93;3.33;;;;;;;14.41;100.00;97842.34;5128758;27;20031;-81
2022/07/14 00:55:57;;;;;;;7.20;3.30;;;;;;;14.36;100.00;97849.88;5111527;28;20030;-81
2022/07/14 00:58:23;;;;;;;6.55;3.00;;;;;;;14.31;100.00;97846.63;5094487;28;20119;-81
2022/07/14 01:00:49;;;;;;;9.52;3.63;;;;;;;14.26;100.00;97848.78;5111572;28;20030;-81
2022/07/14 01:03:15;;;;;;;3.58;2.80;;;;;;;14.23;100.00;97840.94;5128236;27;20015;-81
2022/07/14 01:05:41;;;;;;;4.15;2.97;;;;;;;14.19;100.00;97850.19;5094605;28;20045;-82
2022/07/14 01:08:06;;;;;;;11.10;2.83;;;;;;;14.11;100.00;97842.69;5128557;27;20030;-81
2022/07/14 01:10:32;;;;;;;5.38;3.00;;;;;;;14.10;100.00;97853.53;5128598;27;20399;-81
2022/07/14 01:13:03;;;;;;;5.75;3.28;;;;;;;13.89;100.00;97839.78;5111422;28;20046;-81
2022/07/14 01:15:29;;;;;;;4.50;2.83;;;;;;;13.91;100.00;97847.72;5121228;27;20028;-82
2022/07/14 01:17:54;;;;;;;7.18;3.22;;;;;;;13.89;100.00;97849.69;5094326;28;20077;-81
2022/07/14 01:20:20;;;;;;;5.68;3.10;;;;;;;13.87;100.00;97844.41;5096383;28;20126;-81
2022/07/14 01:22:47;;;;;;;4.93;3.30;;;;;;;13.80;100.00;97845.81;5098956;28;20084;-81
2022/07/14 01:25:16;;;;;;;4.15;2.85;;;;;;;13.79;100.00;97843.22;5094334;28;20015;-81
2022/07/14 01:27:41;;;;;;;4.15;3.15;;;;;;;13.66;100.00;97853.13;5094407;28;20020;-81
2022/07/14 01:30:08;;;;;;;6.70;3.33;;;;;;;13.66;100.00;97837.00;5112000;28;20554;-81
2022/07/14 01:32:34;;;;;;;5.30;3.15;;;;;;;13.69;100.00;97843.00;5095008;28;20024;-81
2022/07/14 01:34:59;;;;;;;5.45;2.90;;;;;;;13.74;100.00;97832.81;5110958;28;20032;-81
2022/07/14 01:37:26;;;;;;;4.28;3.13;;;;;;;13.76;100.00;97836.22;5093833;28;20482;-82
2022/07/14 01:40:57;;;;;;;4.90;3.20;;;;;;;13.57;100.00;97792.78;5127661;27;20111;-83
2022/07/14 01:44:06;;;;;;;5.88;3.00;;;;;;;13.83;100.00;97842.03;5107808;27;20038;-83
2022/07/14 01:47:27;;;;;;;9.18;3.65;;;;;;;13.64;100.00;97820.09;5019926;28;20034;-83
2022/07/14 01:50:11;;;;;;;8.65;3.28;;;;;;;13.29;100.00;97771.50;4985043;28;20132;-83
2022/07/14 01:53:20;;;;;;;3.92;2.97;;;;;;;13.73;100.00;97830.19;5093822;28;20071;-82
2022/07/14 01:55:46;;;;;;;5.57;3.28;;;;;;;13.52;100.00;97786.88;4988888;28;20040;-83
2022/07/14 01:58:48;;;;;;;5.75;3.30;;;;;;;13.67;100.00;97836.88;5027585;28;20564;-83
2022/07/14 02:01:44;;;;;;;5.65;4.03;;;;;;;13.70;100.00;97827.72;4988654;28;20029;-83
2022/07/14 02:04:15;;;;;;;5.18;3.65;;;;;;;13.67;100.00;97834.19;4990236;28;20419;-81
2022/07/14 02:06:42;;;;;;;12.85;4.40;;;;;;;13.63;100.00;97823.78;5016326;28;20036;-81
2022/07/14 02:09:07;;;;;;;9.38;3.20;;;;;;;13.57;100.00;97828.59;5085752;28;20048;-81
2022/07/14 02:14:17;;;;;;;6.72;3.53;;;;;;;13.46;100.00;97836.53;5086417;28;20055;-80
2022/07/14 02:16:43;;;;;;;6.03;3.88;;;;;;;13.53;100.00;97835.13;5101418;28;20027;-81
2022/07/14 02:19:08;;;;;;;12.77;3.80;;;;;;;13.45;100.00;97826.75;5059862;28;20117;-81
2022/07/14 02:21:34;;;;;;;8.98;4.75;;;;;;;13.54;100.00;97842.25;5090766;28;20027;-82
2022/07/14 02:23:59;;;;;;;7.30;3.63;;;;;;;13.53;100.00;97827.06;5069570;28;20510;-81
2022/07/14 02:26:26;;;;;;;4.60;2.90;;;;;;;13.48;100.00;97836.44;5081108;28;20590;-81
2022/07/14 02:28:53;;;;;;;5.43;3.15;;;;;;;13.38;100.00;97838.88;5097896;28;20028;-81
2022/07/14 02:31:18;;;;;;;5.38;3.28;;;;;;;13.26;100.00;97831.66;5098587;28;20460;-81
2022/07/14 02:33:45;;;;;;;6.47;3.25;;;;;;;13.33;100.00;97837.47;5072591;28;20027;-81
2022/07/14 02:36:11;;;;;;;7.45;4.00;;;;;;;13.32;100.00;97844.66;5093754;28;20483;-82
2022/07/14 02:38:37;;;;;;;8.13;3.22;;;;;;;13.28;100.00;97845.88;5111418;28;20030;-81
2022/07/14 02:41:07;;;;;;;11.32;3.65;;;;;;;13.14;100.00;97842.38;5095522;27;20056;-81
2022/07/14 02:43:33;;;;;;;10.13;4.75;;;;;;;13.03;100.00;97841.25;5113346;28;20035;-81
2022/07/14 02:45:59;;;;;;;4.45;3.20;;;;;;;13.01;100.00;97847.69;5116472;27;20080;-81
2022/07/14 02:48:25;;;;;;;5.90;3.10;;;;;;;12.99;100.00;97846.91;5100267;27;20077;-82
2022/07/14 02:50:51;;;;;;;6.88;3.72;;;;;;;13.02;100.00;97844.03;5117350;27;20063;-80
2022/07/14 02:53:16;;;;;;;5.15;3.83;;;;;;;13.04;100.00;97847.50;5117218;27;20038;-81
2022/07/14 02:55:43;;;;;;;7.45;3.70;;;;;;;12.94;100.00;97857.97;5096620;28;20391;-81
2022/07/14 02:58:08;;;;;;;5.68;3.42;;;;;;;12.95;100.00;97853.47;5117290;27;20534;-81
2022/07/14 03:00:34;;;;;;;8.55;3.45;;;;;;;12.85;100.00;97858.59;5101882;28;20173;-81
2022/07/14 03:03:01;;;;;;;5.80;3.28;;;;;;;12.86;100.00;97851.38;5132899;27;20163;-82
2022/07/14 03:05:27;;;;;;;5.22;3.30;;;;;;;12.87;100.00;97850.41;5103362;28;20020;-81
2022/07/14 03:07:52;;;;;;;7.35;3.40;;;;;;;12.82;100.00;97857.94;5130752;27;20031;-81
2022/07/14 03:10:18;;;;;;;6.80;3.60;;;;;;;12.72;100.00;97846.06;5099321;27;20164;-81
2022/07/14 03:12:44;;;;;;;5.93;3.78;;;;;;;12.77;100.00;97863.59;5100553;28;20028;-81
2022/07/14 03:15:10;;;;;;;4.60;3.50;;;;;;;12.83;100.00;97859.63;5097998;27;20180;-81
2022/07/14 03:17:38;;;;;;;4.22;3.10;;;;;;;12.84;100.00;97869.41;5102147;28;20015;-82
2022/07/14 03:20:06;;;;;;;4.55;3.50;;;;;;;12.89;100.00;97867.28;5096449;28;20026;-82
2022/07/14 03:22:32;;;;;;;5.53;3.28;;;;;;;12.88;100.00;97862.91;5096302;28;20030;-81
2022/07/14 03:24:58;;;;;;;11.23;4.18;;;;;;;12.96;100.00;97860.56;5114570;27;20471;-82
2022/07/14 03:27:24;;;;;;;16.08;4.68;;;;;;;12.96;100.00;97871.28;5096428;28;20028;-82
2022/07/14 03:29:50;;;;;;;12.50;5.20;;;;;;;12.87;100.00;97878.13;5147528;27;20354;-80
2022/07/14 03:32:15;;;;;;;11.70;4.40;;;;;;;12.92;100.00;97876.00;5113048;28;20035;-82
2022/07/14 03:34:41;;;;;;;7.15;4.05;;;;;;;12.99;100.00;97879.16;5096511;28;20027;-80
2022/07/14 03:37:06;;;;;;;11.70;4.90;;;;;;;13.03;100.00;97880.69;5095614;28;20069;-81
2022/07/14 03:39:32;;;;;;;11.60;5.03;;;;;;;13.07;100.00;97880.34;5129997;27;20032;-80
2022/07/14 03:41:57;;;;;;;9.15;4.28;;;;;;;13.07;100.00;97887.56;5112625;28;20048;-78
2022/07/14 03:44:23;;;;;;;9.25;4.00;;;;;;;13.08;100.00;97883.94;5129663;27;20059;-80
2022/07/14 03:46:48;;;;;;;7.90;4.20;;;;;;;12.97;100.00;97884.63;5095844;28;20016;-81
2022/07/14 03:49:14;;;;;;;6.63;4.15;;;;;;;13.04;100.00;97880.56;5131243;27;20031;-81
2022/07/14 03:51:43;;;;;;;12.52;3.90;;;;;;;13.10;100.00;97879.34;5129732;27;20027;-80
2022/07/14 03:54:10;;;;;;;6.68;3.75;;;;;;;13.19;100.00;97894.84;5094951;28;20111;-81
2022/07/14 03:56:37;;;;;;;10.20;4.50;;;;;;;13.24;100.00;97899.91;5129752;27;20027;-83
2022/07/14 03:59:03;;;;;;;17.20;4.88;;;;;;;13.28;100.00;97886.16;5095614;28;20027;-80
2022/07/14 04:01:29;;;;;;;12.95;5.05;;;;;;;13.36;100.00;97882.94;5115330;27;20507;-81
2022/07/14 04:03:54;;;;;;;13.38;4.47;;;;;;;13.42;100.00;97899.53;5099784;28;20065;-80
2022/07/14 04:06:20;;;;;;;14.77;4.10;;;;;;;13.56;100.00;97909.34;5129354;27;20060;-81
2022/07/14 04:08:46;;;;;;;10.25;3.67;;;;;;;13.63;100.00;97905.25;5095541;28;20023;-81
2022/07/14 04:11:13;;;;;;;12.65;4.07;;;;;;;13.57;100.00;97900.28;5129568;27;20027;-81
2022/07/14 04:13:38;;;;;;;9.85;4.07;;;;;;;13.48;100.00;97900.91;5102113;28;20027;-80
2022/07/14 04:16:04;;;;;;;10.10;4.30;;;;;;;13.57;100.00;97911.03;5112111;28;20027;-80
2022/07/14 04:18:30;;;;;;;12.05;6.15;;;;;;;13.68;100.00;97907.63;5098042;27;20533;-80
2022/07/14 04:20:56;;;;;;;17.25;5.68;;;;;;;13.88;100.00;97917.88;5099905;28;20015;-80
2022/07/14 04:23:21;;;;;;;14.15;4.90;;;;;;;13.88;100.00;97902.59;5113376;27;20038;-80
2022/07/14 04:25:48;;;;;;;9.45;4.53;;;;;;;13.92;100.00;97914.00;5101039;28;20395;-81
2022/07/14 04:28:16;;;;;;;15.57;5.47;;;;;;;14.09;100.00;97913.69;5112456;28;20458;-80
2022/07/14 04:30:42;;;;;;;13.15;4.80;;;;;;;14.18;100.00;97923.78;5129289;27;20027;-80
2022/07/14 04:33:12;;;;;;;12.90;4.88;;;;;;;14.26;100.00;97915.19;5094972;28;20031;-80
2022/07/14 04:35:38;;;;;;;9.10;4.10;;;;;;;14.39;100.00;97914.25;5111583;28;20032;-80
2022/07/14 04:38:03;;;;;;;8.32;4.20;;;;;;;14.54;100.00;97913.16;5129008;27;20035;-81
2022/07/14 04:40:29;;;;;;;10.20;4.20;;;;;;;14.68;100.00;97922.03;5111495;28;20039;-80
2022/07/14 04:42:55;;;;;;;12.57;5.00;;;;;;;14.75;100.00;97921.50;5094577;28;20055;-81
2022/07/14 04:45:22;;;;;;;13.02;5.20;;;;;;;14.93;100.00;97911.22;5128957;27;20399;-81
2022/07/14 04:47:48;;;;;;;12.15;4.25;;;;;;;14.97;100.00;97908.19;5101427;28;20479;-80
2022/07/14 04:52:58;;;;;;;11.18;4.85;;;;;;;15.24;100.00;97918.75;5111839;28;20034;-80
2022/07/14 04:55:23;;;;;;;12.45;4.55;;;;;;;15.41;100.00;97926.41;5096196;27;20019;-83
2022/07/14 04:57:49;;;;;;;15.32;4.50;;;;;;;15.89;98.42;97921.00;5100770;28;20035;-81
2022/07/14 05:00:15;;;;;;;7.93;4.53;;;;;;;16.29;95.91;97919.59;5094338;28;20031;-80
2022/07/14 05:02:40;;;;;;;7.18;3.85;;;;;;;16.49;94.72;97926.13;5096601;27;20138;-81
2022/07/14 05:05:07;;;;;;;11.80;4.30;;;;;;;17.94;86.95;97934.78;5123643;27;20070;-80
2022/07/14 05:07:33;;;;;;;13.77;4.97;;;;;;;20.24;75.46;97922.81;5094020;28;20042;-80
2022/07/14 05:09:59;;;;;;;11.52;4.30;;;;;;;22.30;64.89;97912.25;5094395;28;20019;-80
2022/07/14 05:12:24;;;;;;;8.50;3.65;;;;;;;22.64;60.69;97899.53;5094026;28;20042;-81
2022/07/14 05:14:50;;;;;;;5.75;3.63;;;;;;;22.73;59.14;97908.66;5117968;27;20019;-80
2022/07/14 05:17:15;;;;;;;5.53;3.70;;;;;;;22.60;58.71;97911.78;5094032;28;20035;-80
2022/07/14 05:19:41;;;;;;;8.32;4.00;;;;;;;22.93;57.76;97897.31;5095138;28;20115;-81
2022/07/14 05:22:07;;;;;;;6.78;4.00;;;;;;;24.16;55.07;97894.75;5094407;28;20061;-82
2022/07/14 05:24:32;;;;;;;5.47;3.70;;;;;;;24.15;54.87;97904.81;5127977;27;20031;-82
2022/07/14 05:26:58;;;;;;;20.75;6.80;;;;;;;24.92;53.08;97916.22;5094142;28;20015;-83
2022/07/14 05:29:25;;;;;;;7.70;4.10;;;;;;;25.88;49.85;97893.81;5094128;28;20115;-82
2022/07/14 05:31:51;;;;;;;6.63;4.00;;;;;;;27.33;47.54;97886.03;5110873;28;20402;-82
2022/07/14 05:34:17;;;;;;;5.05;3.70;;;;;;;26.77;46.00;97883.94;5127889;27;20030;-81
2022/07/14 05:36:42;;;;;;;11.23;3.47;;;;;;;27.33;45.75;97890.69;5127859;27;20054;-82
2022/07/14 05:39:08;;;;;;;11.93;5.07;;;;;;;28.16;43.48;97880.06;5111208;28;20030;-82
2022/07/14 05:41:34;;;;;;;13.25;4.65;;;;;;;29.12;41.63;97872.94;5127871;27;20086;-82
2022/07/14 05:43:59;;;;;;;12.73;8.50;;;;;;;27.64;43.27;97871.22;5127745;27;20026;-81
2022/07/14 05:46:25;;;;;;;13.82;4.03;;;;;;;29.22;40.83;97881.72;5128055;27;20463;-81
2022/07/14 05:48:50;;;;;;;11.13;3.30;;;;;;;29.55;39.28;97871.69;5130516;27;20027;-81
2022/07/14 05:51:17;;;;;;;9.38;3.22;;;;;;;29.59;39.11;97871.06;5098093;28;20437;-81
2022/07/14 05:53:44;;;;;;;10.60;3.55;;;;;;;30.85;37.11;97867.44;5094591;27;20028;-82
2022/07/14 05:56:11;;;;;;;8.52;3.30;;;;;;;31.69;35.44;97851.66;5098711;28;20050;-82
2022/07/14 05:58:37;;;;;;;6.60;3.00;;;;;;;32.31;34.63;97850.00;5093616;28;20062;-82
2022/07/14 06:01:04;;;;;;;23.85;17.02;;;;;;;32.53;34.33;97856.00;5102388;28;20028;-82
2022/07/14 06:03:30;;;;;;;4.82;3.13;;;;;;;30.63;36.03;97854.94;5094175;27;20019;-82
2022/07/14 06:05:58;;;;;;;9.88;5.68;;;;;;;31.70;34.93;97852.53;5097205;27;20038;-82
2022/07/14 06:08:24;;;;;;;6.97;4.00;;;;;;;31.55;35.21;97855.59;5114334;27;20422;-83
2022/07/14 06:10:50;;;;;;;12.00;6.90;;;;;;;32.89;33.59;97853.34;5093171;28;20053;-83
2022/07/14 06:13:16;;;;;;;7.50;3.90;;;;;;;33.47;32.72;97853.78;5110584;28;20030;-83
2022/07/14 06:15:44;;;;;;;9.05;3.55;;;;;;;33.60;31.74;97844.47;5111898;27;20038;-83
2022/07/14 06:18:30;;;;;;;11.50;4.88;;;;;;;34.05;31.64;97844.91;5100103;28;20024;-83
2022/07/14 06:20:56;;;;;;;9.95;3.08;;;;;;;34.41;30.62;97839.22;5109669;28;20616;-84
2022/07/14 06:23:21;;;;;;;6.45;2.45;;;;;;;33.41;31.56;97840.00;5128555;27;20118;-82
2022/07/14 06:25:47;;;;;;;15.57;3.40;;;;;;;31.44;34.40;97844.34;5119759;27;20152;-82
2022/07/14 06:28:13;;;;;;;10.75;3.20;;;;;;;31.90;34.41;97846.88;5100510;28;20467;-83
2022/07/14 06:30:38;;;;;;;12.63;3.55;;;;;;;33.03;33.03;97842.97;5095768;28;20019;-82
2022/07/14 06:33:04;;;;;;;10.85;3.65;;;;;;;34.27;30.83;97840.53;5093282;28;20027;-82
2022/07/14 06:35:30;;;;;;;22.40;12.43;;;;;;;33.83;31.48;97836.25;5093943;28;20092;-81
2022/07/14 06:37:56;;;;;;;17.17;5.82;;;;;;;32.70;33.31;97841.38;5094525;28;20031;-83
2022/07/14 06:40:22;;;;;;;6.75;3.85;;;;;;;33.48;32.39;97844.38;5127293;27;20423;-83
2022/07/14 06:42:47;;;;;;;4.55;2.90;;;;;;;33.26;32.25;97855.09;5130087;28;20057;-81
2022/07/14 06:45:13;;;;;;;6.55;2.67;;;;;;;32.30;33.60;97839.16;5099106;28;20104;-81
2022/07/14 06:47:39;;;;;;;8.52;5.38;;;;;;;33.25;32.05;97847.03;5095292;28;20035;-82
2022/07/14 06:50:06;;;;;;;9.95;3.08;;;;;;;32.11;33.54;97849.31;5113326;28;20031;-81
2022/07/14 06:52:35;;;;;;;8.07;2.80;;;;;;;31.92;34.30;97845.59;5114440;28;20063;-81
2022/07/14 06:55:02;;;;;;;20.77;13.63;;;;;;;33.29;32.54;97842.69;5122103;28;20461;-81
2022/07/14 06:57:28;;;;;;;12.60;6.20;;;;;;;34.19;31.42;97826.97;5116591;28;20566;-82
2022/07/14 06:59:54;;;;;;;11.95;3.10;;;;;;;34.77;31.05;97833.47;5093875;28;20059;-82
2022/07/14 07:02:23;;;;;;;53.35;36.33;;;;;;;36.00;29.15;97813.63;5119104;28;20181;-81
2022/07/14 07:07:32;;;;;;;8.10;3.05;;;;;;;36.89;27.82;97812.69;5113220;28;20054;-82
2022/07/14 07:09:58;;;;;;;3.17;2.53;;;;;;;37.27;27.36;97808.22;5128173;28;20032;-82
2022/07/14 07:12:24;;;;;;;7.80;3.10;;;;;;;37.06;27.52;97818.28;5102871;28;20031;-82
2022/07/14 07:14:49;;;;;;;10.90;5.10;;;;;;;37.90;26.72;97805.69;5095152;28;20089;-82
2022/07/14 07:17:15;;;;;;;6.07;2.63;;;;;;;38.65;26.39;97795.50;5095873;28;20110;-82
2022/07/14 07:19:40;;;;;;;10.52;2.72;;;;;;;38.00;26.29;97796.59;5094840;28;20024;-82
2022/07/14 07:22:06;;;;;;;7.03;3.10;;;;;;;37.66;26.76;97790.31;5092828;28;20028;-82
2022/07/14 07:24:31;;;;;;;13.95;3.72;;;;;;;37.66;26.92;97795.91;5109382;28;20039;-82
2022/07/14 07:26:57;;;;;;;10.63;3.10;;;;;;;37.43;27.91;97797.00;5112964;28;20545;-81
2022/07/14 07:29:22;;;;;;;6.70;2.90;;;;;;;37.09;27.34;97797.38;5101039;27;20375;-83
2022/07/14 07:31:48;;;;;;;3.95;2.50;;;;;;;36.25;27.71;97799.34;5099514;27;20026;-82
2022/07/14 07:34:13;;;;;;;5.63;2.03;;;;;;;35.50;28.98;97796.72;5117045;27;20046;-81
2022/07/14 07:36:39;;;;;;;15.60;5.40;;;;;;;37.45;27.59;97803.19;5112712;28;20493;-79
2022/07/14 07:39:04;;;;;;;4.10;2.38;;;;;;;37.56;25.88;97789.38;5095896;28;20028;-79
2022/07/14 07:41:30;;;;;;;10.63;2.85;;;;;;;37.83;25.49;97793.88;5095673;28;20039;-78
2022/07/14 07:43:57;;;;;;;4.78;2.83;;;;;;;37.58;25.77;97798.31;5130122;27;20040;-78
2022/07/14 07:46:22;;;;;;;18.08;3.53;;;;;;;37.97;25.00;97789.56;5096705;27;20097;-78
2022/07/14 07:48:48;;;;;;;7.40;1.75;;;;;;;37.71;24.32;97782.00;5097910;28;20474;-79
2022/07/14 07:51:14;;;;;;;8.07;1.90;;;;;;;37.67;24.65;97769.66;5113106;28;20031;-80
2022/07/14 07:53:43;;;;;;;3.45;1.75;;;;;;;37.97;24.19;97778.41;5095572;28;20055;-82
2022/07/14 07:56:09;;;;;;;5.22;1.63;;;;;;;40.06;22.34;97771.88;5096360;28;20035;-84
2022/07/14 07:58:35;;;;;;;4.85;1.83;;;;;;;39.55;23.37;97756.03;5130769;27;20093;-83
2022/07/14 08:01:01;;;;;;;13.30;2.85;;;;;;;38.96;23.18;97764.72;5102593;27;20035;-81
2022/07/14 08:03:27;;;;;;;3.97;1.50;;;;;;;38.62;23.20;97759.69;5128331;27;20046;-84
2022/07/14 08:05:52;;;;;;;3.30;1.73;;;;;;;37.34;24.24;97756.69;5096450;27;20020;-84
2022/07/14 08:08:18;;;;;;;2.95;1.63;;;;;;;36.62;25.28;97758.72;5117054;27;20125;-84
2022/07/14 08:10:44;;;;;;;1.90;1.60;;;;;;;37.61;23.92;97765.13;5111643;28;20032;-83
2022/07/14 08:13:10;;;;;;;7.45;1.80;;;;;;;38.56;23.66;97760.75;5094545;28;20035;-84
2022/07/14 08:15:36;;;;;;;5.70;1.63;;;;;;;38.59;23.09;97755.47;5110527;28;20094;-84
2022/07/14 08:18:02;;;;;;;4.35;1.60;;;;;;;39.65;22.44;97753.28;5095079;28;20091;-84
2022/07/14 08:20:28;;;;;;;7.43;1.58;;;;;;;38.53;22.98;97750.97;5128261;27;20027;-83
2022/07/14 08:22:54;;;;;;;10.20;2.15;;;;;;;39.30;23.02;97750.34;5095302;27;20082;-82
2022/07/14 08:25:19;;;;;;;5.60;1.65;;;;;;;40.09;21.89;97748.09;5098960;28;20027;-83
2022/07/14 08:27:45;;;;;;;5.18;1.80;;;;;;;40.65;21.33;97748.94;5110214;27;20031;-82
2022/07/14 08:30:11;;;;;;;5.75;2.15;;;;;;;40.25;21.74;97735.75;5093261;28;20406;-83
2022/07/14 08:32:37;;;;;;;6.05;2.13;;;;;;;40.81;20.94;97745.00;5127244;27;20047;-83
2022/07/14 08:35:05;;;;;;;3.00;1.88;;;;;;;42.17;20.29;97740.81;5111161;27;20035;-83
2022/07/14 08:37:30;;;;;;;4.32;1.73;;;;;;;41.92;20.01;97741.78;5114576;27;20035;-84
2022/07/14 08:39:56;;;;;;;6.85;2.15;;;;;;;42.94;19.78;97741.78;5092869;28;20031;-83
2022/07/14 08:42:21;;;;;;;5.25;1.98;;;;;;;41.79;20.89;97734.00;5092857;28;20059;-84
2022/07/14 08:44:47;;;;;;;7.07;1.90;;;;;;;40.50;21.71;97732.94;5126742;27;20039;-83
2022/07/14 08:47:13;;;;;;;1.70;1.60;;;;;;;39.51;22.84;97726.88;5126491;27;20383;-83
2022/07/14 08:49:39;;;;;;;12.55;2.42;;;;;;;39.74;22.49;97725.59;5092978;28;20063;-83
2022/07/14 08:52:05;;;;;;;5.72;2.30;;;;;;;39.98;21.73;97723.94;5127881;27;20027;-84
2022/07/14 08:54:32;;;;;;;3.60;1.50;;;;;;;39.41;22.23;97724.09;5098747;28;20031;-83
2022/07/14 08:56:58;;;;;;;5.03;2.75;;;;;;;40.69;21.67;97730.44;5128996;27;20043;-83
2022/07/14 08:59:23;;;;;;;2.85;2.08;;;;;;;40.60;21.96;97715.28;5100824;28;20024;-83
2022/07/14 09:01:50;;;;;;;6.60;2.13;;;;;;;39.46;22.88;97732.50;5126888;27;20076;-83
2022/07/14 09:04:16;;;;;;;2.60;2.03;;;;;;;39.11;22.84;97723.91;5110536;27;20136;-83
2022/07/14 09:06:45;;;;;;;5.63;2.72;;;;;;;39.10;22.56;97725.03;5109369;28;20031;-83
2022/07/14 09:09:15;;;;;;;3.65;2.10;;;;;;;39.95;21.80;97728.16;5110533;27;20178;-84
2022/07/14 09:12:01;;;;;;;4.22;1.50;;;;;;;40.07;21.46;97711.03;5126710;27;20409;-83
2022/07/14 09:14:29;;;;;;;1.98;1.77;;;;;;;40.54;20.93;97720.06;5102846;28;20051;-84
2022/07/14 09:17:27;;;;;;;1.95;1.40;;;;;;;38.83;21.55;97706.41;5092222;27;20027;-83
2022/07/14 09:20:10;;;;;;;8.63;1.77;;;;;;;39.61;20.68;97700.88;5062883;28;20126;-84
2022/07/14 09:22:44;;;;;;;2.85;1.10;;;;;;;40.08;19.51;97679.09;5102045;28;20095;-83
2022/07/14 09:25:16;;;;;;;3.88;1.67;;;;;;;40.34;19.99;97691.16;5126994;27;20110;-83
2022/07/14 09:27:47;;;;;;;3.03;1.50;;;;;;;38.38;21.12;97692.97;5126896;27;20097;-83
2022/07/14 09:30:14;;;;;;;8.48;2.45;;;;;;;40.43;20.00;97687.50;5094531;27;20133;-83
2022/07/14 09:32:59;;;;;;;6.95;2.88;;;;;;;40.48;18.68;97661.41;5115630;27;20027;-83
2022/07/14 09:35:51;;;;;;;1.80;1.42;;;;;;;40.55;19.35;97667.56;5128706;27;20397;-83
2022/07/14 09:38:19;;;;;;;10.43;1.30;;;;;;;39.47;20.11;97672.56;5094790;27;20096;-83
2022/07/14 09:40:49;;;;;;;2.78;1.58;;;;;;;39.96;19.66;97665.34;5098462;28;20507;-83
2022/07/14 09:43:15;;;;;;;3.85;1.27;;;;;;;38.86;20.36;97663.91;5128667;27;20086;-83
2022/07/14 09:45:46;;;;;;;4.25;1.17;;;;;;;37.55;21.81;97662.84;5098588;28;20085;-81
2022/07/14 09:48:16;;;;;;;2.13;1.33;;;;;;;36.55;21.95;97663.25;5110609;27;20097;-83
2022/07/14 09:50:57;;;;;;;1.92;1.40;;;;;;;38.40;21.59;97673.94;5091983;28;20088;-82
2022/07/14 09:53:23;;;;;;;7.38;1.40;;;;;;;40.32;19.78;97663.41;5129172;27;20036;-83
2022/07/14 09:55:59;;;;;;;2.78;1.40;;;;;;;40.38;19.70;97667.03;5098140;28;20119;-82
2022/07/14 09:58:32;;;;;;;17.17;6.97;;;;;;;38.97;20.70;97654.44;5127584;27;20117;-82
2022/07/14 10:01:03;;;;;;;9.45;4.00;;;;;;;38.38;20.21;97647.38;5092607;28;20049;-82
2022/07/14 10:03:29;;;;;;;;;;;;;;;38.77;19.83;97648.72;5126375;27;20035;-83
2022/07/14 10:05:56;;;;;;;18.58;2.75;;;;;;;40.45;19.17;97654.41;5092245;28;19919;-83
2022/07/14 10:08:30;;;;;;;18.83;5.90;;;;;;;40.38;19.24;97655.81;5093531;27;20035;-82
2022/07/14 10:10:57;;;;;;;19.55;8.05;;;;;;;40.35;18.86;97647.97;5114893;27;20035;-83
2022/07/14 10:13:24;;;;;;;1.75;1.20;;;;;;;40.06;17.58;97640.09;5092215;28;20128;-82
2022/07/14 10:15:51;;;;;;;6.72;3.35;;;;;;;40.52;18.10;97642.91;5092355;28;20187;-82
2022/07/14 10:18:18;;;;;;;7.55;1.85;;;;;;;41.15;18.20;97648.88;5125937;27;20039;-82
2022/07/14 10:20:51;;;;;;;7.55;1.67;;;;;;;41.47;18.02;97652.94;5127093;27;20471;-83
2022/07/14 10:23:20;;;;;;;3.00;1.27;;;;;;;39.47;18.91;97639.75;5092429;28;20031;-82
2022/07/14 10:25:48;;;;;;;9.35;1.88;;;;;;;39.69;19.55;97636.72;5092475;28;20048;-81
2022/07/14 10:28:15;;;;;;;2.95;1.40;;;;;;;38.67;20.81;97642.25;5092427;28;20484;-83
2022/07/14 10:31:08;;;;;;;5.68;1.65;;;;;;;39.34;20.48;97645.06;5110957;28;20541;-82
2022/07/14 10:33:56;;;;;;;5.00;1.17;;;;;;;38.50;20.40;97634.88;5108793;28;20034;-83
2022/07/14 10:36:37;;;;;;;1.35;1.10;;;;;;;37.73;21.48;97640.13;5127028;27;20040;-82
2022/07/14 10:39:22;;;;;;;3.33;1.33;;;;;;;37.72;21.52;97638.41;5121019;27;20020;-82
2022/07/14 10:41:47;;;;;;;22.40;13.23;;;;;;;39.06;20.92;97631.50;5138484;27;20270;-83
2022/07/14 10:44:25;;;;;;;1.38;1.20;;;;;;;39.47;20.31;97622.13;5112931;28;20122;-83
2022/07/14 10:47:06;;;;;;;1.92;1.48;;;;;;;40.02;19.91;97627.75;5128361;27;20080;-83
2022/07/14 10:50:01;;;;;;;3.60;1.30;;;;;;;40.54;19.75;97626.63;5093833;28;20517;-83
2022/07/14 10:52:29;;;;;;;8.77;1.70;;;;;;;41.11;19.37;97626.97;5095059;28;20046;-83
2022/07/14 10:55:18;;;;;;;7.70;1.40;;;;;;;41.25;19.03;97623.56;5125756;28;20092;-83
2022/07/14 10:57:59;;;;;;;1.58;1.13;;;;;;;39.74;19.60;97616.28;5094837;28;20422;-84
2022/07/14 11:00:58;;;;;;;1.10;1.00;;;;;;;40.07;20.05;97621.31;5120919;28;20140;-84
2022/07/14 11:03:33;;;;;;;8.07;1.90;;;;;;;40.76;19.80;97618.72;5096268;28;20043;-83
2022/07/14 11:06:11;;;;;;;1.55;1.10;;;;;;;40.34;19.24;97604.19;5112803;28;20026;-83
2022/07/14 11:08:45;;;;;;;2.38;1.48;;;;;;;39.44;20.22;97595.50;5114196;27;20066;-83
2022/07/14 11:11:23;;;;;;;4.57;1.50;;;;;;;40.15;19.32;97600.34;5095780;28;20024;-83
2022/07/14 11:14:01;;;;;;;6.45;1.55;;;;;;;40.59;19.77;97612.56;5097466;27;20034;-84
2022/07/14 11:16:59;;;;;;;2.28;1.30;;;;;;;40.89;18.88;97601.22;5126036;27;20550;-84
2022/07/14 11:19:32;;;;;;;4.35;1.60;;;;;;;38.71;19.99;97593.84;5069120;28;20480;-82
2022/07/14 11:22:10;;;;;;;2.85;1.23;;;;;;;39.92;19.64;97596.97;5095508;28;20034;-82
2022/07/14 11:24:44;;;;;;;3.05;1.33;;;;;;;41.52;18.32;97593.91;5112711;27;20127;-82
2022/07/14 11:27:26;;;;;;;4.60;1.38;;;;;;;41.92;18.18;97603.16;5088573;28;20023;-83
2022/07/14 11:29:52;;;;;;;5.15;1.58;;;;;;;41.33;17.94;97581.63;5112258;28;20032;-83
2022/07/14 11:32:32;;;;;;;4.10;1.38;;;;;;;42.06;17.85;97585.28;5129640;27;20023;-83
2022/07/14 11:38:00;;;;;;;1.42;1.25;;;;;;;42.18;17.16;97573.66;5113857;27;20124;-82
2022/07/14 11:40:43;;;;;;;2.95;1.38;;;;;;;42.05;17.30;97574.34;5124232;27;20043;-82
2022/07/14 11:43:30;;;;;;;3.10;1.05;;;;;;;41.95;16.97;97575.28;5094547;28;20051;-83
2022/07/14 11:46:03;;;;;;;1.60;1.50;;;;;;;42.77;17.43;97566.81;5114249;27;20130;-83